• Join FlightAware (Why Join?)
  • Login
  • US Flag 
08:22AM EDT


 

Airport Tracker/Info


-or-


 

Live Flight TrackerFlight Track Log ✈ EJA829P ✈ 02-Nov-2013 ✈ KOAK - KSAN

Flight Track Log - Related Links

Times and Time Zones

All times are in EDT time to prevent confusion due to time zone crossing. See the EJA829P flight status page for this flight to view local times or setup timezone preferences in your user account.

Time Position Orientation Groundspeed Altitude Reporting Facility
EDT Latitude Longitude Course Direction KTS MPH feet Rate Location/Type
11:07AM 37.7333 -122.2500 288° West 194 223 1,400  Level Northern Cal TRACON
11:08AM 37.7500 -122.3167 288° West 243 280 4,900 3,660 Climbing Northern Cal TRACON
11:09AM 37.7297 -122.3844 249° West 271 312 8,200 2,520 Climbing Oakland Center
11:10AM 37.6489 -122.4047 191° South 293 337 9,700 1,140 Climbing Oakland Center
11:11AM 37.5633 -122.4258 191° South 304 350 10,600 1,800 Climbing Oakland Center
11:12AM 37.4681 -122.4489 191° South 335 386 13,400 2,400 Climbing Oakland Center
11:13AM 37.3739 -122.4719 191° South 342 394 15,600 1,980 Climbing Oakland Center
11:14AM 37.2775 -122.4956 191° South 349 402 17,500 1,620 Climbing Oakland Center
11:15AM 37.1764 -122.5197 191° South 364 419 19,000 1,320 Climbing Oakland Center
11:16AM 37.0750 -122.4842 164° South 394 453 20,200 1,320 Climbing Oakland Center
11:17AM 36.9836 -122.4028 145° Southeast 402 463 21,700 1,320 Climbing Oakland Center
11:18AM 36.8903 -122.3181 144° Southeast 414 476 22,900 1,140 Climbing Oakland Center
11:19AM 36.7953 -122.2339 145° Southeast 418 481 24,100 1,080 Climbing Oakland Center
11:20AM 36.6989 -122.1494 145° Southeast 424 488 25,200 1,020 Climbing Oakland Center
11:21AM 36.6019 -122.0600 143° Southeast 435 501 26,200 840 Climbing Oakland Center
11:22AM 36.5039 -121.9761 145° Southeast 431 496 27,000 840 Climbing Oakland Center
11:23AM 36.3858 -121.8706 144° Southeast 437 503 28,000 720 Climbing Oakland Center
11:24AM 36.2878 -121.7858 145° Southeast 436 502 28,500 540 Climbing Oakland Center
11:25AM 36.1869 -121.6981 145° Southeast 444 511 29,100 840 Climbing Oakland Center
11:26AM 36.0903 -121.6122 144° Southeast 431 496 30,300 900 Climbing Oakland Center
11:27AM 36.0142 -121.5003 130° Southeast 430 495 31,000 780 Climbing Oakland Center
11:28AM 35.9394 -121.3847 129° Southeast 430 495 31,900 840 Climbing Oakland Center
11:29AM 35.8650 -121.2692 128° Southeast 432 497 32,800 780 Climbing Oakland Center
11:30AM 35.7906 -121.1558 129° Southeast 428 493 33,500 780 Climbing Oakland Center
11:31AM 35.7161 -121.0417 129° Southeast 430 495 34,400 720 Climbing Oakland Center
11:32AM 35.6417 -120.9283 129° Southeast 429 494 35,000 240 Climbing Oakland Center
11:33AM 35.5522 -120.7922 129° Southeast 429 494 35,000  Level Oakland Center
11:35AM 35.4772 -120.6811 130° Southeast 425 489 35,000  Level Oakland Center
11:36AM 35.4017 -120.5689 130° Southeast 428 493 35,000  Level Oakland Center
11:37AM 35.3239 -120.4511 129° Southeast 439 505 35,000  Level Oakland Center
11:38AM 35.2458 -120.3342 129° Southeast 443 510 35,000  Level Oakland Center
11:39AM 35.1767 -120.2297 129° Southeast 432 497 35,000  Level Oakland Center
11:40AM 35.1011 -120.1183 130° Southeast 428 493 35,000  Level Oakland Center
11:41AM 35.0100 -119.9844 130° Southeast 428 493 35,000  Level Oakland Center
11:42AM 34.9344 -119.8736 130° Southeast 427 491 35,000  Level Oakland Center
11:42AM 34.9050 -119.8278 128° Southeast 427 491 35,000  Level Los Angeles Center
11:43AM 34.8292 -119.7164 130° Southeast 429 494 35,000  Level Los Angeles Center
11:44AM 34.7542 -119.6053 129° Southeast 426 490 35,000  Level Los Angeles Center
11:45AM 34.6622 -119.4747 131° Southeast 424 488 35,000  Level Los Angeles Center
11:46AM 34.5908 -119.3733 131° Southeast 422 486 35,000  Level Los Angeles Center
11:47AM 34.5161 -119.2644 130° Southeast 421 484 35,000  Level Los Angeles Center
11:48AM 34.4403 -119.1556 130° Southeast 421 484 35,000  Level Los Angeles Center
11:49AM 34.3644 -119.0478 130° Southeast 421 484 35,000  Level Los Angeles Center
11:51AM 34.2736 -118.9175 130° Southeast 421 484 35,000  Level Los Angeles Center
11:52AM 34.1825 -118.7875 130° Southeast 423 487 35,000  Level Los Angeles Center
11:53AM 34.1069 -118.6800 130° Southeast 421 484 35,000  Level Los Angeles Center
11:54AM 34.0156 -118.5503 130° Southeast 422 486 35,000  Level Los Angeles Center
11:55AM 33.9397 -118.4414 130° Southeast 423 487 35,000 -360 Level Los Angeles Center
11:56AM 33.8608 -118.3361 132° Southeast 418 481 34,300 -960 Descending Los Angeles Center
11:57AM 33.7731 -118.2328 136° Southeast 423 487 33,100 -1,500 Descending Los Angeles Center
11:58AM 33.6986 -118.1300 131° Southeast 412 474 31,200 -1,800 Descending Los Angeles Center
11:59AM 33.6239 -118.0372 134° Southeast 388 447 29,400 -2,100 Descending Los Angeles Center
12:00PM 33.5289 -117.9172 134° Southeast 410 472 26,900 -2,400 Descending Los Angeles Center
12:01PM 33.4508 -117.8186 133° Southeast 408 470 24,600 -2,280 Descending Los Angeles Center
12:02PM 33.3761 -117.7247 134° Southeast 388 447 22,300 -2,280 Descending Los Angeles Center
12:03PM 33.3028 -117.6339 134° Southeast 378 435 20,000 -2,220 Descending Los Angeles Center
12:04PM 33.2333 -117.5500 135° Southeast 360 414 18,000 -1,860 Descending Southern California TRACON
12:05PM 33.1500 -117.4833 146° Southeast 363 418 16,500 -1,680 Descending Southern California TRACON
12:06PM 33.0667 -117.4167 146° Southeast 347 399 14,700 -1,860 Descending Southern California TRACON
12:07PM 32.9833 -117.3500 146° Southeast 343 395 12,800 -2,040 Descending Southern California TRACON
12:08PM 32.9167 -117.2833 140° Southeast 332 382 10,700 -2,340 Descending Southern California TRACON
12:09PM 32.8500 -117.2333 148° Southeast 286 329 8,100 -2,640 Descending Southern California TRACON
12:10PM 32.8000 -117.1667 132° Southeast 264 304 5,500 -1,560 Descending Southern California TRACON
12:11PM 32.7833 -117.1000 107° East 227 261 5,000 -300 Descending Southern California TRACON
12:12PM 32.7667 -117.0167 103° East 222 255 5,000 -540 Level Southern California TRACON
12:13PM 32.7167 -117.0333 196° South 201 231 4,000 -1,440 Descending Southern California TRACON
12:14PM 32.7000 -117.0833 248° West 169 194 2,200 -1,440 Descending Southern California TRACON
12:15PM 32.7167 -117.1333 292° West 127 146 1,200 -900 Descending Southern California TRACON
12:16PM 32.7333 -117.1667 301° West 119 137 400 -840 Descending Southern California TRACON
12:19PM 32.7333 -117.1833 278° West  Level FlightAware Approximate